sensor_id;sensor_type;location;lat;lon;timestamp;temperature;humidity
64718;DHT22;62506;46.070;14.492;2022-10-31T00:02:05;22.20;68.70
64718;DHT22;62506;46.070;14.492;2022-10-31T00:04:30;22.20;68.70
64718;DHT22;62506;46.070;14.492;2022-10-31T00:06:56;22.20;68.70
64718;DHT22;62506;46.070;14.492;2022-10-31T00:09:21;22.20;68.60
64718;DHT22;62506;46.070;14.492;2022-10-31T00:11:47;22.20;68.70
64718;DHT22;62506;46.070;14.492;2022-10-31T00:14:12;22.20;68.70
64718;DHT22;62506;46.070;14.492;2022-10-31T00:16:38;22.20;68.70
64718;DHT22;62506;46.070;14.492;2022-10-31T00:19:06;22.20;68.60
64718;DHT22;62506;46.070;14.492;2022-10-31T00:21:32;22.20;68.60
64718;DHT22;62506;46.070;14.492;2022-10-31T00:23:58;22.20;68.60
64718;DHT22;62506;46.070;14.492;2022-10-31T00:26:23;22.20;68.70
64718;DHT22;62506;46.070;14.492;2022-10-31T00:28:49;22.20;68.70
64718;DHT22;62506;46.070;14.492;2022-10-31T00:31:16;22.20;68.70
64718;DHT22;62506;46.070;14.492;2022-10-31T00:33:42;22.20;68.80
64718;DHT22;62506;46.070;14.492;2022-10-31T00:36:10;22.20;68.80
64718;DHT22;62506;46.070;14.492;2022-10-31T00:38:36;22.20;68.80
64718;DHT22;62506;46.070;14.492;2022-10-31T00:41:01;22.20;68.90
64718;DHT22;62506;46.070;14.492;2022-10-31T00:43:27;22.20;68.90
64718;DHT22;62506;46.070;14.492;2022-10-31T00:45:52;22.20;68.80
64718;DHT22;62506;46.070;14.492;2022-10-31T00:48:18;22.20;68.80
64718;DHT22;62506;46.070;14.492;2022-10-31T00:50:43;22.20;68.90
64718;DHT22;62506;46.070;14.492;2022-10-31T00:53:09;22.20;68.90
64718;DHT22;62506;46.070;14.492;2022-10-31T00:55:34;22.20;68.90
64718;DHT22;62506;46.070;14.492;2022-10-31T00:58:00;22.20;68.90
64718;DHT22;62506;46.070;14.492;2022-10-31T01:00:25;22.20;68.90
64718;DHT22;62506;46.070;14.492;2022-10-31T01:02:51;22.10;68.80
64718;DHT22;62506;46.070;14.492;2022-10-31T01:05:16;22.10;68.80
64718;DHT22;62506;46.070;14.492;2022-10-31T01:07:42;22.10;68.90
64718;DHT22;62506;46.070;14.492;2022-10-31T01:10:08;22.10;68.80
64718;DHT22;62506;46.070;14.492;2022-10-31T01:12:40;22.10;68.90
64718;DHT22;62506;46.070;14.492;2022-10-31T01:15:07;22.10;68.80
64718;DHT22;62506;46.070;14.492;2022-10-31T01:17:32;22.10;68.80
64718;DHT22;62506;46.070;14.492;2022-10-31T01:19:58;22.10;68.80
64718;DHT22;62506;46.070;14.492;2022-10-31T01:22:23;22.10;68.90
64718;DHT22;62506;46.070;14.492;2022-10-31T01:24:49;22.20;68.90
64718;DHT22;62506;46.070;14.492;2022-10-31T01:27:14;22.20;68.90
64718;DHT22;62506;46.070;14.492;2022-10-31T01:29:40;22.20;68.80
64718;DHT22;62506;46.070;14.492;2022-10-31T01:32:05;22.20;68.90
64718;DHT22;62506;46.070;14.492;2022-10-31T01:34:31;22.20;68.80
64718;DHT22;62506;46.070;14.492;2022-10-31T01:36:57;22.10;68.70
64718;DHT22;62506;46.070;14.492;2022-10-31T01:39:22;22.10;68.80
64718;DHT22;62506;46.070;14.492;2022-10-31T01:41:48;22.20;68.80
64718;DHT22;62506;46.070;14.492;2022-10-31T01:46:44;22.10;68.80
64718;DHT22;62506;46.070;14.492;2022-10-31T01:49:31;22.10;68.80
64718;DHT22;62506;46.070;14.492;2022-10-31T01:52:21;22.10;68.80
64718;DHT22;62506;46.070;14.492;2022-10-31T01:54:45;22.10;69.00
64718;DHT22;62506;46.070;14.492;2022-10-31T01:57:12;22.10;69.00
64718;DHT22;62506;46.070;14.492;2022-10-31T01:59:41;22.10;69.00
64718;DHT22;62506;46.070;14.492;2022-10-31T02:02:07;22.10;69.00
64718;DHT22;62506;46.070;14.492;2022-10-31T02:04:33;22.10;69.10
64718;DHT22;62506;46.070;14.492;2022-10-31T02:07:02;22.10;69.00
64718;DHT22;62506;46.070;14.492;2022-10-31T02:09:29;22.10;68.90
64718;DHT22;62506;46.070;14.492;2022-10-31T02:11:55;22.10;68.80
64718;DHT22;62506;46.070;14.492;2022-10-31T02:14:22;22.10;68.90
64718;DHT22;62506;46.070;14.492;2022-10-31T02:16:47;22.10;68.80
64718;DHT22;62506;46.070;14.492;2022-10-31T02:19:14;22.10;68.80
64718;DHT22;62506;46.070;14.492;2022-10-31T02:21:53;22.10;68.80
64718;DHT22;62506;46.070;14.492;2022-10-31T02:26:56;22.10;68.70
64718;DHT22;62506;46.070;14.492;2022-10-31T02:34:35;22.20;68.70
64718;DHT22;62506;46.070;14.492;2022-10-31T02:42:12;22.10;68.60
64718;DHT22;62506;46.070;14.492;2022-10-31T02:44:48;22.10;68.60
64718;DHT22;62506;46.070;14.492;2022-10-31T02:47:15;22.20;68.60
64718;DHT22;62506;46.070;14.492;2022-10-31T02:52:14;22.20;68.60
64718;DHT22;62506;46.070;14.492;2022-10-31T02:54:41;22.10;68.60
64718;DHT22;62506;46.070;14.492;2022-10-31T02:57:07;22.10;68.40
64718;DHT22;62506;46.070;14.492;2022-10-31T02:59:33;22.20;68.50
64718;DHT22;62506;46.070;14.492;2022-10-31T03:07:07;22.10;68.60
64718;DHT22;62506;46.070;14.492;2022-10-31T03:14:40;22.10;68.60
64718;DHT22;62506;46.070;14.492;2022-10-31T03:17:07;22.10;68.60
64718;DHT22;62506;46.070;14.492;2022-10-31T03:19:36;22.10;68.70
64718;DHT22;62506;46.070;14.492;2022-10-31T03:22:07;22.10;68.70
64718;DHT22;62506;46.070;14.492;2022-10-31T03:24:38;22.10;68.70
64718;DHT22;62506;46.070;14.492;2022-10-31T03:27:05;22.10;69.60
64718;DHT22;62506;46.070;14.492;2022-10-31T03:29:32;22.10;68.70
64718;DHT22;62506;46.070;14.492;2022-10-31T03:32:00;22.10;68.70
64718;DHT22;62506;46.070;14.492;2022-10-31T03:34:27;22.10;68.80
64718;DHT22;62506;46.070;14.492;2022-10-31T03:36:54;22.10;68.80
64718;DHT22;62506;46.070;14.492;2022-10-31T03:39:21;22.10;68.80
64718;DHT22;62506;46.070;14.492;2022-10-31T03:41:49;22.10;68.80
64718;DHT22;62506;46.070;14.492;2022-10-31T03:44:17;22.10;68.80
64718;DHT22;62506;46.070;14.492;2022-10-31T03:46:44;22.10;68.80
64718;DHT22;62506;46.070;14.492;2022-10-31T03:49:10;22.10;68.80
64718;DHT22;62506;46.070;14.492;2022-10-31T03:57:04;22.00;68.70
64718;DHT22;62506;46.070;14.492;2022-10-31T03:59:33;22.00;68.70
64718;DHT22;62506;46.070;14.492;2022-10-31T04:02:05;22.10;68.70
64718;DHT22;62506;46.070;14.492;2022-10-31T04:04:32;22.10;68.80
64718;DHT22;62506;46.070;14.492;2022-10-31T04:06:58;22.10;68.70
64718;DHT22;62506;46.070;14.492;2022-10-31T04:09:25;22.10;68.60
64718;DHT22;62506;46.070;14.492;2022-10-31T04:11:52;22.10;68.70
64718;DHT22;62506;46.070;14.492;2022-10-31T04:14:18;22.10;68.60
64718;DHT22;62506;46.070;14.492;2022-10-31T04:16:44;22.10;68.70
64718;DHT22;62506;46.070;14.492;2022-10-31T04:19:11;22.10;68.50
64718;DHT22;62506;46.070;14.492;2022-10-31T04:21:37;22.10;68.60
64718;DHT22;62506;46.070;14.492;2022-10-31T04:24:02;22.10;68.90
64718;DHT22;62506;46.070;14.492;2022-10-31T04:26:28;22.10;68.50
64718;DHT22;62506;46.070;14.492;2022-10-31T04:28:53;22.10;68.60
64718;DHT22;62506;46.070;14.492;2022-10-31T04:31:19;22.10;68.50
64718;DHT22;62506;46.070;14.492;2022-10-31T04:33:45;22.10;68.60
64718;DHT22;62506;46.070;14.492;2022-10-31T04:36:10;22.00;68.70
64718;DHT22;62506;46.070;14.492;2022-10-31T04:38:36;22.10;68.70
64718;DHT22;62506;46.070;14.492;2022-10-31T04:41:01;22.00;68.70
64718;DHT22;62506;46.070;14.492;2022-10-31T04:43:27;22.00;68.70
64718;DHT22;62506;46.070;14.492;2022-10-31T04:45:52;22.00;68.70
64718;DHT22;62506;46.070;14.492;2022-10-31T04:48:18;22.10;68.70
64718;DHT22;62506;46.070;14.492;2022-10-31T04:50:43;22.00;68.70
64718;DHT22;62506;46.070;14.492;2022-10-31T04:53:09;22.00;68.90
64718;DHT22;62506;46.070;14.492;2022-10-31T04:55:35;22.00;68.80
64718;DHT22;62506;46.070;14.492;2022-10-31T04:58:00;22.00;68.70
64718;DHT22;62506;46.070;14.492;2022-10-31T05:00:26;22.00;68.70
64718;DHT22;62506;46.070;14.492;2022-10-31T05:02:52;22.00;69.60
64718;DHT22;62506;46.070;14.492;2022-10-31T05:05:19;22.10;68.70
64718;DHT22;62506;46.070;14.492;2022-10-31T05:07:45;22.00;68.60
64718;DHT22;62506;46.070;14.492;2022-10-31T05:10:12;22.10;68.70
64718;DHT22;62506;46.070;14.492;2022-10-31T05:12:44;22.10;68.60
64718;DHT22;62506;46.070;14.492;2022-10-31T05:15:10;22.10;68.60
64718;DHT22;62506;46.070;14.492;2022-10-31T05:17:35;22.10;68.60
64718;DHT22;62506;46.070;14.492;2022-10-31T05:20:01;22.10;68.60
64718;DHT22;62506;46.070;14.492;2022-10-31T05:22:26;22.10;68.60
64718;DHT22;62506;46.070;14.492;2022-10-31T05:24:52;22.10;68.50
64718;DHT22;62506;46.070;14.492;2022-10-31T05:27:17;22.10;68.50
64718;DHT22;62506;46.070;14.492;2022-10-31T05:29:43;22.10;68.50
64718;DHT22;62506;46.070;14.492;2022-10-31T05:32:08;22.10;68.50
64718;DHT22;62506;46.070;14.492;2022-10-31T05:34:34;22.10;68.50
64718;DHT22;62506;46.070;14.492;2022-10-31T05:36:59;22.10;68.50
64718;DHT22;62506;46.070;14.492;2022-10-31T05:39:26;22.10;68.50
64718;DHT22;62506;46.070;14.492;2022-10-31T05:41:51;22.10;68.50
64718;DHT22;62506;46.070;14.492;2022-10-31T05:44:17;22.10;68.50
64718;DHT22;62506;46.070;14.492;2022-10-31T05:46:42;22.10;68.40
64718;DHT22;62506;46.070;14.492;2022-10-31T05:49:08;22.10;68.40
64718;DHT22;62506;46.070;14.492;2022-10-31T05:51:33;22.10;68.40
64718;DHT22;62506;46.070;14.492;2022-10-31T05:53:58;22.10;68.30
64718;DHT22;62506;46.070;14.492;2022-10-31T05:56:24;22.10;69.30
64718;DHT22;62506;46.070;14.492;2022-10-31T05:58:49;22.10;68.40
64718;DHT22;62506;46.070;14.492;2022-10-31T06:01:15;22.10;68.40
64718;DHT22;62506;46.070;14.492;2022-10-31T06:03:40;22.00;68.50
64718;DHT22;62506;46.070;14.492;2022-10-31T06:06:06;22.00;68.70
64718;DHT22;62506;46.070;14.492;2022-10-31T06:08:31;22.10;68.30
64718;DHT22;62506;46.070;14.492;2022-10-31T06:10:57;22.10;68.50
64718;DHT22;62506;46.070;14.492;2022-10-31T06:13:22;22.10;68.30
64718;DHT22;62506;46.070;14.492;2022-10-31T06:15:48;22.10;68.80
64718;DHT22;62506;46.070;14.492;2022-10-31T06:18:13;22.10;68.50
64718;DHT22;62506;46.070;14.492;2022-10-31T06:20:39;22.10;68.10
64718;DHT22;62506;46.070;14.492;2022-10-31T06:23:04;22.10;68.10
64718;DHT22;62506;46.070;14.492;2022-10-31T06:25:30;22.20;68.30
64718;DHT22;62506;46.070;14.492;2022-10-31T06:27:55;22.20;68.60
64718;DHT22;62506;46.070;14.492;2022-10-31T06:30:21;22.20;67.60
64718;DHT22;62506;46.070;14.492;2022-10-31T06:32:47;22.20;67.80
64718;DHT22;62506;46.070;14.492;2022-10-31T06:35:12;22.20;67.70
64718;DHT22;62506;46.070;14.492;2022-10-31T06:37:38;22.20;68.80
64718;DHT22;62506;46.070;14.492;2022-10-31T06:40:04;22.20;68.10
64718;DHT22;62506;46.070;14.492;2022-10-31T06:42:29;22.20;67.70
64718;DHT22;62506;46.070;14.492;2022-10-31T06:44:55;22.20;68.00
64718;DHT22;62506;46.070;14.492;2022-10-31T06:47:20;22.20;68.00
64718;DHT22;62506;46.070;14.492;2022-10-31T06:49:46;22.20;68.30
64718;DHT22;62506;46.070;14.492;2022-10-31T06:52:11;22.30;68.30
64718;DHT22;62506;46.070;14.492;2022-10-31T06:54:37;22.30;67.90
64718;DHT22;62506;46.070;14.492;2022-10-31T06:57:02;22.30;68.20
64718;DHT22;62506;46.070;14.492;2022-10-31T06:59:28;22.30;68.20
64718;DHT22;62506;46.070;14.492;2022-10-31T07:01:53;22.30;68.10
64718;DHT22;62506;46.070;14.492;2022-10-31T07:04:19;22.30;67.60
64718;DHT22;62506;46.070;14.492;2022-10-31T07:14:30;22.40;67.40
64718;DHT22;62506;46.070;14.492;2022-10-31T07:16:58;22.50;68.20
64718;DHT22;62506;46.070;14.492;2022-10-31T07:20:02;22.50;67.20
64718;DHT22;62506;46.070;14.492;2022-10-31T07:30:14;22.60;66.50
64718;DHT22;62506;46.070;14.492;2022-10-31T07:40:25;22.50;64.50
64718;DHT22;62506;46.070;14.492;2022-10-31T07:42:52;22.50;65.00
64718;DHT22;62506;46.070;14.492;2022-10-31T07:45:50;22.50;65.80
64718;DHT22;62506;46.070;14.492;2022-10-31T07:48:36;22.60;66.00
64718;DHT22;62506;46.070;14.492;2022-10-31T07:51:02;22.60;65.90
64718;DHT22;62506;46.070;14.492;2022-10-31T07:53:49;22.60;65.70
64718;DHT22;62506;46.070;14.492;2022-10-31T07:56:15;22.60;65.80
64718;DHT22;62506;46.070;14.492;2022-10-31T07:58:41;22.60;65.80
64718;DHT22;62506;46.070;14.492;2022-10-31T08:01:06;22.60;65.80
64718;DHT22;62506;46.070;14.492;2022-10-31T08:03:32;22.70;65.80
64718;DHT22;62506;46.070;14.492;2022-10-31T08:05:58;22.70;63.20
64718;DHT22;62506;46.070;14.492;2022-10-31T08:08:24;22.50;62.10
64718;DHT22;62506;46.070;14.492;2022-10-31T08:10:49;22.50;64.20
64718;DHT22;62506;46.070;14.492;2022-10-31T08:13:15;22.50;65.20
64718;DHT22;62506;46.070;14.492;2022-10-31T08:15:40;22.60;65.20
64718;DHT22;62506;46.070;14.492;2022-10-31T08:18:11;22.60;65.00
64718;DHT22;62506;46.070;14.492;2022-10-31T08:21:15;22.60;65.30
64718;DHT22;62506;46.070;14.492;2022-10-31T08:26:49;22.60;65.30
64718;DHT22;62506;46.070;14.492;2022-10-31T08:29:25;22.70;65.40
64718;DHT22;62506;46.070;14.492;2022-10-31T08:31:51;22.70;65.40
64718;DHT22;62506;46.070;14.492;2022-10-31T08:34:17;22.70;65.50
64718;DHT22;62506;46.070;14.492;2022-10-31T08:36:43;22.70;65.40
64718;DHT22;62506;46.070;14.492;2022-10-31T08:39:11;22.70;65.60
64718;DHT22;62506;46.070;14.492;2022-10-31T08:41:39;22.70;65.90
64718;DHT22;62506;46.070;14.492;2022-10-31T08:44:04;22.70;66.10
64718;DHT22;62506;46.070;14.492;2022-10-31T08:46:30;22.70;65.70
64718;DHT22;62506;46.070;14.492;2022-10-31T08:48:56;22.60;66.10
64718;DHT22;62506;46.070;14.492;2022-10-31T08:51:22;22.70;65.70
64718;DHT22;62506;46.070;14.492;2022-10-31T08:53:47;22.70;65.60
64718;DHT22;62506;46.070;14.492;2022-10-31T08:56:13;22.70;66.00
64718;DHT22;62506;46.070;14.492;2022-10-31T08:58:38;22.70;66.10
64718;DHT22;62506;46.070;14.492;2022-10-31T09:01:04;22.70;66.40
64718;DHT22;62506;46.070;14.492;2022-10-31T09:03:30;22.70;66.00
64718;DHT22;62506;46.070;14.492;2022-10-31T09:05:59;22.80;65.80
64718;DHT22;62506;46.070;14.492;2022-10-31T09:08:28;22.80;65.90
64718;DHT22;62506;46.070;14.492;2022-10-31T09:10:58;22.80;65.70
64718;DHT22;62506;46.070;14.492;2022-10-31T09:13:24;22.80;66.00
64718;DHT22;62506;46.070;14.492;2022-10-31T09:15:49;22.80;66.50
64718;DHT22;62506;46.070;14.492;2022-10-31T09:18:16;22.80;66.10
64718;DHT22;62506;46.070;14.492;2022-10-31T09:20:42;22.80;66.20
64718;DHT22;62506;46.070;14.492;2022-10-31T09:23:09;22.80;65.70
64718;DHT22;62506;46.070;14.492;2022-10-31T09:25:35;22.90;66.00
64718;DHT22;62506;46.070;14.492;2022-10-31T09:28:02;22.90;66.50
64718;DHT22;62506;46.070;14.492;2022-10-31T09:30:28;22.90;66.30
64718;DHT22;62506;46.070;14.492;2022-10-31T09:33:35;22.90;66.40
64718;DHT22;62506;46.070;14.492;2022-10-31T09:36:00;22.90;66.70
64718;DHT22;62506;46.070;14.492;2022-10-31T09:38:31;22.90;67.00
64718;DHT22;62506;46.070;14.492;2022-10-31T09:41:11;22.90;67.10
64718;DHT22;62506;46.070;14.492;2022-10-31T09:52:09;22.90;67.20
64718;DHT22;62506;46.070;14.492;2022-10-31T09:54:39;22.90;67.00
64718;DHT22;62506;46.070;14.492;2022-10-31T09:57:06;22.90;67.00
64718;DHT22;62506;46.070;14.492;2022-10-31T09:59:37;22.90;67.10
64718;DHT22;62506;46.070;14.492;2022-10-31T10:02:05;22.90;67.20
64718;DHT22;62506;46.070;14.492;2022-10-31T10:04:39;22.90;67.20
64718;DHT22;62506;46.070;14.492;2022-10-31T10:07:29;22.90;67.20
64718;DHT22;62506;46.070;14.492;2022-10-31T10:09:52;22.90;67.10
64718;DHT22;62506;46.070;14.492;2022-10-31T10:12:36;22.90;67.20
64718;DHT22;62506;46.070;14.492;2022-10-31T10:17:38;23.00;67.40
64718;DHT22;62506;46.070;14.492;2022-10-31T10:20:17;23.00;67.30
64718;DHT22;62506;46.070;14.492;2022-10-31T10:23:10;23.00;67.50
64718;DHT22;62506;46.070;14.492;2022-10-31T10:25:39;23.00;67.60
64718;DHT22;62506;46.070;14.492;2022-10-31T10:33:05;23.00;67.50
64718;DHT22;62506;46.070;14.492;2022-10-31T10:35:34;23.00;67.30
64718;DHT22;62506;46.070;14.492;2022-10-31T10:40:35;23.00;66.30
64718;DHT22;62506;46.070;14.492;2022-10-31T10:46:00;23.00;67.00
64718;DHT22;62506;46.070;14.492;2022-10-31T10:48:53;22.90;67.10
64718;DHT22;62506;46.070;14.492;2022-10-31T10:51:22;22.90;66.00
64718;DHT22;62506;46.070;14.492;2022-10-31T10:53:58;22.80;57.10
64718;DHT22;62506;46.070;14.492;2022-10-31T10:56:32;22.70;58.60
64718;DHT22;62506;46.070;14.492;2022-10-31T10:59:01;22.70;60.00
64718;DHT22;62506;46.070;14.492;2022-10-31T11:01:30;22.70;61.20
64718;DHT22;62506;46.070;14.492;2022-10-31T11:07:20;22.80;58.60
64718;DHT22;62506;46.070;14.492;2022-10-31T11:09:49;22.70;57.10
64718;DHT22;62506;46.070;14.492;2022-10-31T11:13:19;22.70;56.90
64718;DHT22;62506;46.070;14.492;2022-10-31T11:15:55;22.70;57.90
64718;DHT22;62506;46.070;14.492;2022-10-31T11:18:44;22.70;57.60
64718;DHT22;62506;46.070;14.492;2022-10-31T11:21:20;22.70;57.90
64718;DHT22;62506;46.070;14.492;2022-10-31T11:23:46;22.70;56.60
64718;DHT22;62506;46.070;14.492;2022-10-31T11:26:32;22.70;56.50
64718;DHT22;62506;46.070;14.492;2022-10-31T11:29:03;22.50;53.70
64718;DHT22;62506;46.070;14.492;2022-10-31T11:31:38;22.30;53.40
64718;DHT22;62506;46.070;14.492;2022-10-31T11:34:29;22.20;53.20
64718;DHT22;62506;46.070;14.492;2022-10-31T11:36:53;22.10;52.70
64718;DHT22;62506;46.070;14.492;2022-10-31T11:39:44;22.10;53.00
64718;DHT22;62506;46.070;14.492;2022-10-31T11:42:23;22.10;53.50
64718;DHT22;62506;46.070;14.492;2022-10-31T11:44:51;22.20;53.30
64718;DHT22;62506;46.070;14.492;2022-10-31T11:47:34;22.10;53.30
64718;DHT22;62506;46.070;14.492;2022-10-31T11:50:08;22.10;53.90
64718;DHT22;62506;46.070;14.492;2022-10-31T11:52:39;22.20;53.90
64718;DHT22;62506;46.070;14.492;2022-10-31T11:57:50;22.10;53.70
64718;DHT22;62506;46.070;14.492;2022-10-31T12:00:33;22.10;53.20
64718;DHT22;62506;46.070;14.492;2022-10-31T12:03:14;21.90;53.40
64718;DHT22;62506;46.070;14.492;2022-10-31T12:05:41;21.90;53.40
64718;DHT22;62506;46.070;14.492;2022-10-31T12:08:14;22.00;53.90
64718;DHT22;62506;46.070;14.492;2022-10-31T12:10:59;21.90;53.30
64718;DHT22;62506;46.070;14.492;2022-10-31T12:13:34;21.80;53.70
64718;DHT22;62506;46.070;14.492;2022-10-31T12:16:26;22.00;55.00
64718;DHT22;62506;46.070;14.492;2022-10-31T12:19:23;22.10;54.60
64718;DHT22;62506;46.070;14.492;2022-10-31T12:22:02;22.00;53.90
64718;DHT22;62506;46.070;14.492;2022-10-31T12:24:35;22.00;54.70
64718;DHT22;62506;46.070;14.492;2022-10-31T12:27:24;22.10;54.40
64718;DHT22;62506;46.070;14.492;2022-10-31T12:30:27;22.10;54.70
64718;DHT22;62506;46.070;14.492;2022-10-31T12:37:42;22.30;55.50
64718;DHT22;62506;46.070;14.492;2022-10-31T12:40:17;22.30;55.70
64718;DHT22;62506;46.070;14.492;2022-10-31T12:42:50;22.40;56.10
64718;DHT22;62506;46.070;14.492;2022-10-31T12:58:21;22.50;57.00
64718;DHT22;62506;46.070;14.492;2022-10-31T13:00:46;22.50;57.00
64718;DHT22;62506;46.070;14.492;2022-10-31T13:03:18;22.50;57.20
64718;DHT22;62506;46.070;14.492;2022-10-31T13:05:46;22.50;57.30
64718;DHT22;62506;46.070;14.492;2022-10-31T13:08:15;22.50;57.40
64718;DHT22;62506;46.070;14.492;2022-10-31T13:13:52;22.60;57.90
64718;DHT22;62506;46.070;14.492;2022-10-31T13:15:57;22.50;57.90
64718;DHT22;62506;46.070;14.492;2022-10-31T13:18:36;22.50;56.80
64718;DHT22;62506;46.070;14.492;2022-10-31T13:21:07;22.60;56.50
64718;DHT22;62506;46.070;14.492;2022-10-31T13:23:34;22.50;56.30
64718;DHT22;62506;46.070;14.492;2022-10-31T13:26:14;22.50;55.20
64718;DHT22;62506;46.070;14.492;2022-10-31T13:28:50;22.50;54.70
64718;DHT22;62506;46.070;14.492;2022-10-31T13:31:17;22.50;54.40
64718;DHT22;62506;46.070;14.492;2022-10-31T13:33:47;22.50;55.20
64718;DHT22;62506;46.070;14.492;2022-10-31T13:36:23;22.50;56.40
64718;DHT22;62506;46.070;14.492;2022-10-31T13:44:39;22.60;57.20
64718;DHT22;62506;46.070;14.492;2022-10-31T13:47:21;22.60;58.00
64718;DHT22;62506;46.070;14.492;2022-10-31T13:49:48;22.60;57.40
64718;DHT22;62506;46.070;14.492;2022-10-31T13:52:15;22.60;57.50
64718;DHT22;62506;46.070;14.492;2022-10-31T13:54:45;22.60;55.90
64718;DHT22;62506;46.070;14.492;2022-10-31T13:57:15;22.60;55.70
64718;DHT22;62506;46.070;14.492;2022-10-31T14:02:34;22.60;55.00
64718;DHT22;62506;46.070;14.492;2022-10-31T14:07:48;22.60;55.20
64718;DHT22;62506;46.070;14.492;2022-10-31T14:10:22;22.60;55.30
64718;DHT22;62506;46.070;14.492;2022-10-31T14:12:49;22.60;55.40
64718;DHT22;62506;46.070;14.492;2022-10-31T14:15:20;22.60;55.50
64718;DHT22;62506;46.070;14.492;2022-10-31T14:22:43;22.60;56.20
64718;DHT22;62506;46.070;14.492;2022-10-31T14:28:31;22.60;56.40
64718;DHT22;62506;46.070;14.492;2022-10-31T14:30:58;22.50;56.80
64718;DHT22;62506;46.070;14.492;2022-10-31T14:33:27;22.50;57.30
64718;DHT22;62506;46.070;14.492;2022-10-31T14:36:17;22.50;57.50
64718;DHT22;62506;46.070;14.492;2022-10-31T14:41:46;22.50;57.80
64718;DHT22;62506;46.070;14.492;2022-10-31T14:46:43;22.40;58.20
64718;DHT22;62506;46.070;14.492;2022-10-31T14:51:42;22.40;59.20
64718;DHT22;62506;46.070;14.492;2022-10-31T14:54:11;22.30;58.60
64718;DHT22;62506;46.070;14.492;2022-10-31T14:56:40;22.30;58.70
64718;DHT22;62506;46.070;14.492;2022-10-31T14:59:09;22.30;58.80
64718;DHT22;62506;46.070;14.492;2022-10-31T15:01:38;22.30;59.10
64718;DHT22;62506;46.070;14.492;2022-10-31T15:06:40;22.30;59.30
64718;DHT22;62506;46.070;14.492;2022-10-31T15:09:20;22.30;59.70
64718;DHT22;62506;46.070;14.492;2022-10-31T15:11:47;22.40;59.80
64718;DHT22;62506;46.070;14.492;2022-10-31T15:14:23;22.30;59.80
64718;DHT22;62506;46.070;14.492;2022-10-31T15:16:49;22.40;59.90
64718;DHT22;62506;46.070;14.492;2022-10-31T15:19:17;22.40;60.10
64718;DHT22;62506;46.070;14.492;2022-10-31T15:21:45;22.40;60.20
64718;DHT22;62506;46.070;14.492;2022-10-31T15:24:11;22.30;60.50
64718;DHT22;62506;46.070;14.492;2022-10-31T15:26:44;22.40;60.70
64718;DHT22;62506;46.070;14.492;2022-10-31T15:29:15;22.40;60.80
64718;DHT22;62506;46.070;14.492;2022-10-31T15:31:58;22.40;61.00
64718;DHT22;62506;46.070;14.492;2022-10-31T15:36:56;22.40;61.20
64718;DHT22;62506;46.070;14.492;2022-10-31T15:39:22;22.50;60.90
64718;DHT22;62506;46.070;14.492;2022-10-31T15:44:26;22.50;62.00
64718;DHT22;62506;46.070;14.492;2022-10-31T15:49:42;22.60;61.10
64718;DHT22;62506;46.070;14.492;2022-10-31T15:52:11;22.60;62.30
64718;DHT22;62506;46.070;14.492;2022-10-31T15:54:42;22.60;61.50
64718;DHT22;62506;46.070;14.492;2022-10-31T15:57:10;22.60;61.40
64718;DHT22;62506;46.070;14.492;2022-10-31T15:59:36;22.60;62.30
64718;DHT22;62506;46.070;14.492;2022-10-31T16:07:47;22.60;61.60
64718;DHT22;62506;46.070;14.492;2022-10-31T17:13:21;22.60;63.40
64718;DHT22;62506;46.070;14.492;2022-10-31T17:15:49;22.60;63.70
64718;DHT22;62506;46.070;14.492;2022-10-31T17:49:42;22.70;63.60
64718;DHT22;62506;46.070;14.492;2022-10-31T19:31:07;22.80;64.60
64718;DHT22;62506;46.070;14.492;2022-10-31T19:33:33;22.70;61.00
64718;DHT22;62506;46.070;14.492;2022-10-31T19:36:03;22.50;61.00
64718;DHT22;62506;46.070;14.492;2022-10-31T19:38:32;22.50;62.60
64718;DHT22;62506;46.070;14.492;2022-10-31T19:41:05;22.50;63.50
64718;DHT22;62506;46.070;14.492;2022-10-31T19:43:31;22.50;63.80
64718;DHT22;62506;46.070;14.492;2022-10-31T19:45:58;22.50;64.30
64718;DHT22;62506;46.070;14.492;2022-10-31T19:48:27;22.60;64.10
64718;DHT22;62506;46.070;14.492;2022-10-31T19:51:00;22.60;64.00
64718;DHT22;62506;46.070;14.492;2022-10-31T19:53:27;22.60;64.00
64718;DHT22;62506;46.070;14.492;2022-10-31T19:55:55;22.60;64.20
64718;DHT22;62506;46.070;14.492;2022-10-31T19:58:21;22.60;64.00
64718;DHT22;62506;46.070;14.492;2022-10-31T20:00:48;22.70;64.20
64718;DHT22;62506;46.070;14.492;2022-10-31T20:11:00;22.70;64.20
64718;DHT22;62506;46.070;14.492;2022-10-31T20:13:27;22.70;64.20
64718;DHT22;62506;46.070;14.492;2022-10-31T20:15:57;22.70;64.10
64718;DHT22;62506;46.070;14.492;2022-10-31T20:18:45;22.60;64.20
64718;DHT22;62506;46.070;14.492;2022-10-31T20:21:15;22.60;64.50
64718;DHT22;62506;46.070;14.492;2022-10-31T20:23:42;22.70;64.50
64718;DHT22;62506;46.070;14.492;2022-10-31T20:26:15;22.70;64.20
64718;DHT22;62506;46.070;14.492;2022-10-31T20:28:43;22.80;64.50
64718;DHT22;62506;46.070;14.492;2022-10-31T20:31:09;22.80;64.10
64718;DHT22;62506;46.070;14.492;2022-10-31T20:33:36;22.80;65.00
64718;DHT22;62506;46.070;14.492;2022-10-31T20:36:02;22.80;64.00
64718;DHT22;62506;46.070;14.492;2022-10-31T20:38:29;22.80;64.00
64718;DHT22;62506;46.070;14.492;2022-10-31T20:51:17;22.90;64.00
64718;DHT22;62506;46.070;14.492;2022-10-31T20:53:45;22.80;63.80
64718;DHT22;62506;46.070;14.492;2022-10-31T20:56:12;22.90;63.80
64718;DHT22;62506;46.070;14.492;2022-10-31T20:58:38;22.80;63.90
64718;DHT22;62506;46.070;14.492;2022-10-31T21:01:09;22.80;63.70
64718;DHT22;62506;46.070;14.492;2022-10-31T21:03:36;22.80;63.70
64718;DHT22;62506;46.070;14.492;2022-10-31T21:06:01;22.80;64.10
64718;DHT22;62506;46.070;14.492;2022-10-31T21:08:28;22.80;64.50
64718;DHT22;62506;46.070;14.492;2022-10-31T21:10:54;22.70;63.20
64718;DHT22;62506;46.070;14.492;2022-10-31T21:13:19;22.60;63.00
64718;DHT22;62506;46.070;14.492;2022-10-31T21:15:45;22.60;64.20
64718;DHT22;62506;46.070;14.492;2022-10-31T21:18:11;22.60;64.50
64718;DHT22;62506;46.070;14.492;2022-10-31T21:20:40;22.60;64.60
64718;DHT22;62506;46.070;14.492;2022-10-31T21:23:11;22.60;64.50
64718;DHT22;62506;46.070;14.492;2022-10-31T21:25:40;22.60;64.50
64718;DHT22;62506;46.070;14.492;2022-10-31T21:28:07;22.60;64.70
64718;DHT22;62506;46.070;14.492;2022-10-31T21:30:39;22.60;64.70
64718;DHT22;62506;46.070;14.492;2022-10-31T21:33:05;22.60;64.80